createdAt,value
2023-05-14T00:02:05.104Z,28.65
2023-05-14T00:04:35.473Z,26.80
2023-05-14T00:07:07.020Z,24.73
2023-05-14T00:09:37.618Z,22.95
2023-05-14T00:12:08.251Z,27.73
2023-05-14T00:14:39.040Z,22.42
2023-05-14T00:17:09.598Z,26.80
2023-05-14T00:19:42.998Z,25.05
2023-05-14T00:22:13.403Z,34.75
2023-05-14T00:24:43.355Z,23.90
2023-05-14T00:27:13.848Z,26.65
2023-05-14T00:29:43.782Z,23.80
2023-05-14T00:32:14.870Z,23.23
2023-05-14T00:34:45.839Z,27.70
2023-05-14T00:37:16.453Z,25.45
2023-05-14T00:39:47.205Z,33.05
2023-05-14T00:42:17.276Z,34.17
2023-05-14T00:44:48.145Z,36.92
2023-05-14T00:47:21.123Z,40.90
2023-05-14T00:49:52.328Z,37.10
2023-05-14T00:52:23.434Z,38.67
2023-05-14T00:54:53.896Z,44.38
2023-05-14T00:57:24.958Z,31.00
2023-05-14T00:59:55.681Z,29.55
2023-05-14T01:02:27.570Z,33.58
2023-05-14T01:04:57.932Z,33.13
2023-05-14T01:07:46.983Z,31.52
2023-05-14T01:10:32.619Z,33.15
2023-05-14T01:13:26.242Z,36.20
2023-05-14T01:15:59.018Z,36.67
2023-05-14T01:18:30.037Z,40.05
2023-05-14T01:21:01.447Z,35.40
2023-05-14T01:23:31.475Z,41.25
2023-05-14T01:26:02.470Z,50.22
2023-05-14T01:28:36.386Z,38.97
2023-05-14T01:31:12.426Z,28.98
2023-05-14T01:33:44.398Z,25.88
2023-05-14T01:36:15.239Z,29.35
2023-05-14T01:38:48.451Z,29.63
2023-05-14T01:41:19.940Z,31.58
2023-05-14T01:43:50.477Z,29.48
2023-05-14T01:46:20.994Z,32.92
2023-05-14T01:48:51.894Z,27.73
2023-05-14T01:51:23.232Z,33.35
2023-05-14T01:53:53.981Z,27.10
2023-05-14T01:56:26.724Z,24.45
2023-05-14T01:58:58.248Z,25.40
2023-05-14T02:01:28.543Z,26.10
2023-05-14T02:03:59.415Z,27.20
2023-05-14T02:06:29.956Z,29.80
2023-05-14T02:09:01.123Z,28.05
2023-05-14T02:11:33.006Z,26.38
2023-05-14T02:14:08.583Z,29.30
2023-05-14T02:16:39.460Z,30.40
2023-05-14T02:19:10.639Z,34.17
2023-05-14T02:21:42.014Z,28.15
2023-05-14T02:24:12.702Z,28.15
2023-05-14T02:26:43.513Z,27.38
2023-05-14T02:29:13.996Z,35.75
2023-05-14T02:31:44.778Z,34.17
2023-05-14T02:34:15.245Z,30.45
2023-05-14T02:36:46.015Z,27.98
2023-05-14T02:39:16.550Z,29.02
2023-05-14T02:41:49.506Z,29.48
2023-05-14T02:44:20.065Z,38.22
2023-05-14T02:46:51.095Z,28.35
2023-05-14T02:49:21.956Z,30.67
2023-05-14T02:51:52.514Z,30.33
2023-05-14T02:54:22.838Z,31.52
2023-05-14T02:56:53.533Z,30.95
2023-05-14T02:59:24.665Z,29.52
2023-05-14T03:01:55.353Z,28.05
2023-05-14T03:04:27.492Z,26.85
2023-05-14T03:06:57.918Z,30.63
2023-05-14T03:09:28.456Z,28.48
2023-05-14T03:11:59.240Z,25.70
2023-05-14T03:14:31.476Z,28.55
2023-05-14T03:17:01.591Z,28.33
2023-05-14T03:19:32.263Z,26.65
2023-05-14T03:22:05.416Z,26.80
2023-05-14T03:24:40.035Z,25.30
2023-05-14T03:27:10.554Z,28.65
2023-05-14T03:29:43.404Z,27.50
2023-05-14T03:32:13.650Z,26.42
2023-05-14T03:34:45.843Z,27.02
2023-05-14T03:37:16.650Z,27.90
2023-05-14T03:39:47.010Z,28.08
2023-05-14T03:42:18.086Z,27.27
2023-05-14T03:44:48.619Z,27.95
2023-05-14T03:47:21.483Z,26.23
2023-05-14T03:49:52.119Z,26.02
2023-05-14T03:52:23.161Z,27.80
2023-05-14T03:54:56.588Z,28.08
2023-05-14T03:57:26.995Z,26.30
2023-05-14T03:59:59.069Z,26.98
2023-05-14T04:02:29.119Z,28.23
2023-05-14T04:05:00.629Z,23.67
2023-05-14T04:07:31.528Z,24.50
2023-05-14T04:10:05.233Z,24.65
2023-05-14T04:12:38.093Z,33.28
2023-05-14T04:15:42.091Z,23.35
2023-05-14T04:18:12.682Z,24.85
2023-05-14T04:20:43.081Z,25.17
2023-05-14T04:23:14.536Z,22.42
2023-05-14T04:25:45.590Z,22.98
2023-05-14T04:28:16.174Z,23.58
2023-05-14T04:30:47.063Z,24.30
2023-05-14T04:33:18.178Z,23.40
2023-05-14T04:35:48.629Z,24.02
2023-05-14T04:38:19.635Z,25.67
2023-05-14T04:40:53.074Z,24.83
2023-05-14T04:43:23.619Z,25.58
2023-05-14T04:45:54.624Z,22.80
2023-05-14T04:48:25.648Z,24.98
2023-05-14T04:50:56.116Z,26.10
2023-05-14T04:53:26.366Z,24.30
2023-05-14T04:55:57.606Z,21.83
2023-05-14T04:58:31.167Z,24.00
2023-05-14T05:01:05.344Z,24.40
2023-05-14T05:03:38.238Z,22.52
2023-05-14T05:06:09.630Z,24.20
2023-05-14T05:08:41.152Z,23.83
2023-05-14T05:11:11.847Z,23.55
2023-05-14T05:13:43.417Z,23.90
2023-05-14T05:16:13.767Z,21.27
2023-05-14T05:18:45.772Z,28.63
2023-05-14T05:21:16.189Z,22.50
2023-05-14T05:23:46.680Z,23.80
2023-05-14T05:26:17.977Z,23.42
2023-05-14T05:28:48.170Z,23.83
2023-05-14T05:31:19.935Z,20.88
2023-05-14T05:33:50.686Z,20.90
2023-05-14T05:36:21.106Z,23.23
2023-05-14T05:38:51.706Z,22.13
2023-05-14T05:41:22.211Z,19.13
2023-05-14T05:43:52.657Z,19.42
2023-05-14T05:46:23.257Z,19.92
2023-05-14T05:48:54.410Z,20.33
2023-05-14T05:51:25.119Z,20.13
2023-05-14T05:53:58.568Z,23.23
2023-05-14T05:56:29.320Z,17.77
2023-05-14T05:58:59.956Z,16.90
2023-05-14T06:01:37.037Z,18.45
2023-05-14T06:04:09.897Z,20.63
2023-05-14T06:06:41.230Z,19.10
2023-05-14T06:09:13.182Z,20.65
2023-05-14T06:11:43.715Z,19.17
2023-05-14T06:14:14.738Z,19.67
2023-05-14T06:16:45.677Z,17.65
2023-05-14T06:19:16.516Z,17.85
2023-05-14T06:21:47.738Z,18.67
2023-05-14T06:24:18.808Z,24.20
2023-05-14T06:26:49.984Z,22.85
2023-05-14T06:29:21.651Z,21.00
2023-05-14T06:31:52.221Z,23.27
2023-05-14T06:34:23.012Z,21.10
2023-05-14T06:36:53.696Z,21.38
2023-05-14T06:39:28.458Z,22.83
2023-05-14T06:42:02.245Z,20.85
2023-05-14T06:44:34.233Z,23.35
2023-05-14T06:47:04.117Z,21.77
2023-05-14T06:49:34.763Z,24.75
2023-05-14T06:52:05.768Z,22.17
2023-05-14T06:54:39.774Z,25.60
2023-05-14T06:57:10.384Z,23.58
2023-05-14T06:59:40.769Z,26.95
2023-05-14T07:02:11.265Z,26.20
2023-05-14T07:04:41.842Z,23.63
2023-05-14T07:07:14.781Z,28.55
2023-05-14T07:09:44.804Z,26.20
2023-05-14T07:12:15.279Z,26.50
2023-05-14T07:14:47.645Z,24.80
2023-05-14T07:17:19.530Z,27.38
2023-05-14T07:19:50.524Z,26.73
2023-05-14T07:22:20.728Z,26.13
2023-05-14T07:24:51.498Z,35.08
2023-05-14T07:27:22.316Z,27.83
2023-05-14T07:29:52.786Z,27.08
2023-05-14T07:32:23.279Z,27.20
2023-05-14T07:34:54.315Z,28.60
2023-05-14T07:37:27.043Z,28.10
2023-05-14T07:39:57.552Z,28.08
2023-05-14T07:42:35.777Z,29.08
2023-05-14T07:45:08.027Z,30.30
2023-05-14T07:47:38.870Z,29.88
2023-05-14T07:50:11.610Z,31.50
2023-05-14T07:52:42.192Z,31.30
2023-05-14T07:55:12.782Z,29.95
2023-05-14T07:57:43.443Z,32.40
2023-05-14T08:00:14.596Z,31.67
2023-05-14T08:02:46.918Z,31.70
2023-05-14T08:05:19.474Z,31.75
2023-05-14T08:07:50.352Z,31.02
2023-05-14T08:10:21.144Z,34.15
2023-05-14T08:12:52.103Z,32.22
2023-05-14T08:15:24.009Z,30.77
2023-05-14T08:17:55.890Z,30.40
2023-05-14T08:20:27.644Z,32.45
2023-05-14T08:22:59.252Z,31.98
2023-05-14T08:25:29.586Z,30.38
2023-05-14T08:28:01.031Z,29.85
2023-05-14T08:30:31.480Z,32.65
2023-05-14T08:33:02.409Z,30.80
2023-05-14T08:35:32.320Z,34.70
2023-05-14T08:38:02.894Z,32.67
2023-05-14T08:40:33.907Z,34.95
2023-05-14T08:43:05.174Z,31.85
2023-05-14T08:45:36.609Z,33.47
2023-05-14T08:48:09.890Z,32.20
2023-05-14T08:50:40.578Z,30.48
2023-05-14T08:53:11.429Z,33.33
2023-05-14T08:55:41.568Z,35.13
2023-05-14T08:58:15.326Z,32.72
2023-05-14T09:00:48.045Z,35.50
2023-05-14T09:03:19.341Z,41.15
2023-05-14T09:05:52.832Z,34.45
2023-05-14T09:08:23.642Z,33.03
2023-05-14T09:10:54.640Z,34.85
2023-05-14T09:13:26.975Z,36.28
2023-05-14T09:15:58.944Z,35.17
2023-05-14T09:18:37.904Z,36.15
2023-05-14T09:21:10.242Z,35.67
2023-05-14T09:23:43.503Z,39.03
2023-05-14T09:26:14.144Z,38.88
2023-05-14T09:28:45.346Z,38.08
2023-05-14T09:31:16.941Z,38.35
2023-05-14T09:33:51.797Z,35.90
2023-05-14T09:36:21.857Z,36.38
2023-05-14T09:38:52.875Z,36.70
2023-05-14T09:41:24.138Z,35.40
2023-05-14T09:43:54.861Z,35.65
2023-05-14T09:46:31.182Z,33.00
2023-05-14T09:49:02.680Z,39.97
2023-05-14T09:51:33.350Z,31.15
2023-05-14T09:54:05.938Z,36.45
2023-05-14T09:56:37.591Z,31.73
2023-05-14T09:59:07.956Z,24.13
2023-05-14T10:01:40.241Z,21.67
2023-05-14T10:04:11.505Z,19.60
2023-05-14T10:06:44.403Z,20.83
2023-05-14T10:09:15.434Z,24.60
2023-05-14T10:11:47.412Z,21.98
2023-05-14T10:14:31.460Z,20.58
2023-05-14T10:17:02.544Z,24.13
2023-05-14T10:19:34.957Z,20.52
2023-05-14T10:22:09.871Z,21.35
2023-05-14T10:24:40.944Z,21.05
2023-05-14T10:27:11.898Z,20.77
2023-05-14T10:29:43.460Z,19.55
2023-05-14T10:32:17.723Z,19.40
2023-05-14T10:34:49.391Z,20.20
2023-05-14T10:37:29.024Z,20.98
2023-05-14T10:40:00.685Z,21.48
2023-05-14T10:42:41.904Z,20.75
2023-05-14T10:45:13.355Z,26.02
2023-05-14T10:47:44.998Z,21.33
2023-05-14T10:50:16.656Z,21.35
2023-05-14T10:52:47.445Z,23.02
2023-05-14T10:55:18.473Z,28.42
2023-05-14T10:57:49.292Z,25.02
2023-05-14T11:00:19.552Z,23.98
2023-05-14T11:02:53.775Z,26.63
2023-05-14T11:05:23.994Z,29.27
2023-05-14T11:07:57.674Z,28.23
2023-05-14T11:10:31.333Z,28.48
2023-05-14T11:13:02.476Z,35.70
2023-05-14T11:15:32.662Z,36.17
2023-05-14T11:18:03.539Z,28.08
2023-05-14T11:20:38.063Z,28.45
2023-05-14T11:23:08.509Z,28.88
2023-05-14T11:25:39.772Z,27.83
2023-05-14T11:28:10.693Z,28.50
2023-05-14T11:30:41.484Z,31.75
2023-05-14T11:33:12.306Z,28.45
2023-05-14T11:35:43.996Z,29.05
2023-05-14T11:38:18.499Z,29.95
2023-05-14T11:40:57.867Z,29.92
2023-05-14T11:43:30.468Z,29.80
2023-05-14T11:46:02.053Z,31.08
2023-05-14T11:48:33.613Z,31.85
2023-05-14T11:51:07.555Z,38.03
2023-05-14T11:53:37.676Z,33.25
2023-05-14T11:56:09.778Z,32.45
2023-05-14T11:58:41.022Z,30.10
2023-05-14T12:01:14.953Z,29.92
2023-05-14T12:03:45.933Z,31.73
2023-05-14T12:06:16.277Z,36.08
2023-05-14T12:08:50.535Z,40.80
2023-05-14T12:11:23.056Z,43.80
2023-05-14T12:13:57.342Z,45.92
2023-05-14T12:16:34.795Z,45.53
2023-05-14T12:19:07.174Z,46.40
2023-05-14T12:21:38.428Z,44.22
2023-05-14T12:24:13.971Z,44.72
2023-05-14T12:26:48.424Z,43.17
2023-05-14T12:29:19.545Z,41.28
2023-05-14T12:31:51.487Z,41.60
2023-05-14T12:34:22.315Z,43.47
2023-05-14T12:36:53.487Z,40.92
2023-05-14T12:39:24.123Z,42.47
2023-05-14T12:41:55.520Z,41.30
2023-05-14T12:44:26.069Z,40.15
2023-05-14T12:46:59.657Z,42.85
2023-05-14T12:49:30.057Z,42.42
2023-05-14T12:52:19.364Z,43.42
2023-05-14T12:54:51.103Z,37.38
2023-05-14T12:57:22.077Z,37.72
2023-05-14T12:59:53.109Z,33.60
2023-05-14T13:02:23.605Z,33.83
2023-05-14T13:04:54.522Z,31.33
2023-05-14T13:07:25.367Z,30.73
2023-05-14T13:09:56.644Z,30.45
2023-05-14T13:12:26.579Z,30.85
2023-05-14T13:14:57.034Z,32.00
2023-05-14T13:17:28.216Z,33.75
2023-05-14T13:19:58.609Z,34.70
2023-05-14T13:22:28.624Z,30.40
2023-05-14T13:25:00.126Z,27.75
2023-05-14T13:27:31.545Z,27.27
2023-05-14T13:30:02.096Z,26.92
2023-05-14T13:32:33.018Z,26.42
2023-05-14T13:35:03.080Z,27.23
2023-05-14T13:37:34.720Z,29.13
2023-05-14T13:40:06.249Z,28.45
2023-05-14T13:42:38.112Z,27.20
2023-05-14T13:45:09.708Z,25.30
2023-05-14T13:47:40.742Z,26.15
2023-05-14T13:50:11.636Z,27.38
2023-05-14T13:52:42.390Z,26.10
2023-05-14T13:55:12.654Z,28.30
2023-05-14T13:57:44.164Z,28.02
2023-05-14T14:00:16.169Z,27.15
2023-05-14T14:02:50.919Z,27.42
2023-05-14T14:05:22.174Z,26.30
2023-05-14T14:07:54.737Z,27.33
2023-05-14T14:10:36.687Z,25.83
2023-05-14T14:13:07.108Z,26.25
2023-05-14T14:15:38.060Z,28.20
2023-05-14T14:18:08.675Z,28.33
2023-05-14T14:20:39.159Z,27.88
2023-05-14T14:23:10.038Z,29.08
2023-05-14T14:25:40.675Z,34.97
2023-05-14T14:28:11.221Z,30.77
2023-05-14T14:30:42.189Z,27.17
2023-05-14T14:33:12.765Z,27.13
2023-05-14T14:35:43.278Z,28.77
2023-05-14T14:38:13.914Z,27.73
2023-05-14T14:40:44.686Z,28.60
2023-05-14T14:43:16.462Z,28.58
2023-05-14T14:45:48.803Z,28.52
2023-05-14T14:48:26.190Z,32.35
2023-05-14T14:50:57.458Z,32.20
2023-05-14T14:53:31.628Z,33.92
2023-05-14T14:56:02.718Z,31.77
2023-05-14T14:58:33.184Z,28.83
2023-05-14T15:01:03.701Z,30.42
2023-05-14T15:03:35.295Z,28.77
2023-05-14T15:06:06.166Z,29.55
2023-05-14T15:08:37.170Z,36.97
2023-05-14T15:11:07.721Z,28.70
2023-05-14T15:13:38.736Z,29.65
2023-05-14T15:16:09.934Z,29.25
2023-05-14T15:18:40.242Z,30.45
2023-05-14T15:21:14.113Z,33.53
2023-05-14T15:23:45.388Z,34.58
2023-05-14T15:26:15.858Z,43.30
2023-05-14T15:28:46.766Z,33.00
2023-05-14T15:31:17.978Z,38.80
2023-05-14T15:33:48.451Z,42.15
2023-05-14T15:36:19.152Z,43.97
2023-05-14T15:38:50.008Z,44.10
2023-05-14T15:41:20.240Z,47.88
2023-05-14T15:43:50.764Z,45.38
2023-05-14T15:46:22.768Z,45.78
2023-05-14T15:48:53.716Z,43.28
2023-05-14T15:51:23.966Z,41.53
2023-05-14T15:53:55.308Z,62.63
2023-05-14T15:56:25.243Z,44.38
2023-05-14T15:58:56.208Z,45.15
2023-05-14T16:01:26.302Z,45.08
2023-05-14T16:03:57.376Z,45.15
2023-05-14T16:06:27.784Z,40.58
2023-05-14T16:08:58.790Z,41.25
2023-05-14T16:11:29.269Z,42.55
2023-05-14T16:14:00.874Z,41.97
2023-05-14T16:16:30.763Z,40.03
2023-05-14T16:19:04.836Z,35.10
2023-05-14T16:21:35.972Z,35.70
2023-05-14T16:24:07.212Z,37.08
2023-05-14T16:26:38.204Z,33.13
2023-05-14T16:29:08.432Z,33.95
2023-05-14T16:31:39.348Z,30.00
2023-05-14T16:34:10.274Z,29.98
2023-05-14T16:36:41.288Z,28.83
2023-05-14T16:39:12.820Z,30.38
2023-05-14T16:41:42.792Z,31.73
2023-05-14T16:44:13.523Z,32.35
2023-05-14T16:46:44.054Z,33.03
2023-05-14T16:49:15.300Z,35.08
2023-05-14T16:51:45.772Z,36.40
2023-05-14T16:54:16.794Z,36.00
2023-05-14T16:56:50.503Z,40.13
2023-05-14T16:59:21.335Z,37.53
2023-05-14T17:01:51.822Z,37.08
2023-05-14T17:04:22.410Z,36.28
2023-05-14T17:06:53.329Z,36.70
2023-05-14T17:09:26.187Z,36.53
2023-05-14T17:11:58.263Z,37.47
2023-05-14T17:14:30.265Z,39.45
2023-05-14T17:17:00.781Z,40.22
2023-05-14T17:19:32.530Z,38.38
2023-05-14T17:22:06.864Z,39.90
2023-05-14T17:24:40.350Z,40.40
2023-05-14T17:27:15.306Z,41.05
2023-05-14T17:29:47.260Z,43.25
2023-05-14T17:32:18.386Z,43.20
2023-05-14T17:34:49.415Z,41.28
2023-05-14T17:37:19.795Z,45.45
2023-05-14T17:39:50.334Z,44.17
2023-05-14T17:42:20.867Z,45.80
2023-05-14T17:44:51.335Z,44.35
2023-05-14T17:47:21.867Z,47.20
2023-05-14T17:49:52.839Z,42.05
2023-05-14T17:52:23.440Z,41.28
2023-05-14T17:54:53.842Z,38.75
2023-05-14T17:57:24.826Z,38.65
2023-05-14T17:59:55.400Z,36.28
2023-05-14T18:02:25.425Z,32.42
2023-05-14T18:04:57.021Z,32.13
2023-05-14T18:07:27.854Z,33.80
2023-05-14T18:10:00.936Z,33.33
2023-05-14T18:12:31.433Z,33.15
2023-05-14T18:15:01.366Z,34.20
2023-05-14T18:17:32.147Z,32.53
2023-05-14T18:20:02.847Z,33.83
2023-05-14T18:22:33.393Z,34.92
2023-05-14T18:25:03.707Z,35.55
2023-05-14T18:27:34.862Z,35.47
2023-05-14T18:30:05.331Z,35.85
2023-05-14T18:32:35.907Z,35.40
2023-05-14T18:35:08.045Z,33.80
2023-05-14T18:37:38.913Z,32.53
2023-05-14T18:40:09.872Z,35.15
2023-05-14T18:42:40.432Z,35.00
2023-05-14T18:45:11.786Z,37.15
2023-05-14T18:47:45.027Z,46.13
2023-05-14T18:50:15.419Z,39.40
2023-05-14T18:52:45.966Z,39.40
2023-05-14T18:55:17.428Z,36.92
2023-05-14T18:57:48.017Z,37.92
2023-05-14T19:00:21.958Z,36.20
2023-05-14T19:02:52.728Z,37.28
2023-05-14T19:05:23.196Z,40.35
2023-05-14T19:07:54.343Z,37.15
2023-05-14T19:10:26.953Z,38.72
2023-05-14T19:12:57.481Z,43.15
2023-05-14T19:15:27.689Z,34.60
2023-05-14T19:18:00.714Z,31.15
2023-05-14T19:20:31.533Z,29.67
2023-05-14T19:23:01.950Z,30.98
2023-05-14T19:25:32.441Z,33.22
2023-05-14T19:28:04.854Z,31.23
2023-05-14T19:30:35.906Z,30.20
2023-05-14T19:33:06.549Z,31.23
2023-05-14T19:35:37.001Z,27.75
2023-05-14T19:38:07.219Z,27.17
2023-05-14T19:40:37.480Z,25.50
2023-05-14T19:43:08.955Z,24.52
2023-05-14T19:45:40.456Z,23.58
2023-05-14T19:48:10.760Z,23.20
2023-05-14T19:50:41.134Z,21.38
2023-05-14T19:53:12.361Z,21.00
2023-05-14T19:55:43.271Z,20.80
2023-05-14T19:58:15.996Z,19.08
2023-05-14T20:00:48.399Z,18.85
2023-05-14T20:03:32.193Z,18.80
2023-05-14T20:06:03.173Z,20.23
2023-05-14T20:08:33.554Z,19.13
2023-05-14T20:11:04.433Z,17.85
2023-05-14T20:13:36.476Z,18.55
2023-05-14T20:16:09.336Z,17.15
2023-05-14T20:18:41.676Z,17.98
2023-05-14T20:21:14.664Z,17.52
2023-05-14T20:23:45.464Z,17.42
2023-05-14T20:26:17.575Z,21.67
2023-05-14T20:28:48.164Z,18.10
2023-05-14T20:31:18.875Z,17.38
2023-05-14T20:33:49.031Z,18.77
2023-05-14T20:36:23.531Z,16.55
2023-05-14T20:38:54.043Z,18.08
2023-05-14T20:41:24.781Z,19.23
2023-05-14T20:43:54.988Z,21.05
2023-05-14T20:46:25.877Z,24.45
2023-05-14T20:48:57.026Z,17.77
2023-05-14T20:51:30.261Z,19.33
2023-05-14T20:54:01.020Z,16.83
2023-05-14T20:56:31.989Z,19.63
2023-05-14T20:59:02.547Z,22.77
2023-05-14T21:01:33.007Z,18.70
2023-05-14T21:04:03.748Z,18.77
2023-05-14T21:06:34.408Z,20.17
2023-05-14T21:09:05.720Z,21.40
2023-05-14T21:11:36.062Z,20.95
2023-05-14T21:14:06.551Z,18.20
2023-05-14T21:16:39.668Z,18.80
2023-05-14T21:19:11.221Z,20.38
2023-05-14T21:21:42.785Z,19.92
2023-05-14T21:24:13.466Z,22.67
2023-05-14T21:26:47.065Z,23.35
2023-05-14T21:29:17.777Z,19.92
2023-05-14T21:31:48.090Z,19.00
2023-05-14T21:34:18.836Z,21.33
2023-05-14T21:36:49.521Z,20.17
2023-05-14T21:39:19.827Z,22.15
2023-05-14T21:41:50.088Z,20.23
2023-05-14T21:44:20.286Z,22.98
2023-05-14T21:46:50.591Z,23.63
2023-05-14T21:49:21.183Z,18.95
2023-05-14T21:51:54.459Z,37.78
2023-05-14T21:54:25.196Z,22.55
2023-05-14T21:56:55.603Z,17.63
2023-05-14T21:59:25.548Z,17.48
2023-05-14T22:02:06.724Z,17.63
2023-05-14T22:04:38.106Z,27.40
2023-05-14T22:07:08.619Z,23.63
2023-05-14T22:09:39.116Z,21.80
2023-05-14T22:12:09.631Z,26.90
2023-05-14T22:14:40.597Z,48.72
2023-05-14T22:17:14.010Z,31.25
2023-05-14T22:19:44.639Z,27.05
2023-05-14T22:22:15.631Z,30.30
2023-05-14T22:24:46.071Z,31.13
2023-05-14T22:27:16.588Z,26.67
2023-05-14T22:29:46.818Z,38.20
2023-05-14T22:32:17.645Z,26.77
2023-05-14T22:34:47.605Z,27.85
2023-05-14T22:37:20.524Z,24.20
2023-05-14T22:39:50.861Z,22.48
2023-05-14T22:42:21.793Z,23.80
2023-05-14T22:44:52.643Z,24.02
2023-05-14T22:47:22.739Z,24.17
2023-05-14T22:49:53.144Z,25.85
2023-05-14T22:52:23.920Z,27.30
2023-05-14T22:54:54.405Z,26.30
2023-05-14T22:57:25.595Z,19.35
2023-05-14T22:59:56.115Z,18.42
2023-05-14T23:02:28.685Z,21.65
2023-05-14T23:05:02.399Z,27.63
2023-05-14T23:07:33.145Z,14.23
2023-05-14T23:10:03.389Z,18.80
2023-05-14T23:12:34.198Z,20.77
2023-05-14T23:15:05.383Z,19.95
2023-05-14T23:17:36.823Z,18.25
2023-05-14T23:20:07.614Z,16.67
2023-05-14T23:22:38.692Z,16.80
2023-05-14T23:25:11.358Z,26.42
2023-05-14T23:27:42.132Z,25.17
2023-05-14T23:30:13.722Z,27.02
2023-05-14T23:32:44.765Z,18.50
2023-05-14T23:35:15.225Z,20.55
2023-05-14T23:37:49.483Z,18.80
2023-05-14T23:40:19.945Z,11.63
2023-05-14T23:42:50.418Z,16.75
2023-05-14T23:45:21.685Z,14.98
2023-05-14T23:47:52.819Z,18.20
2023-05-14T23:50:23.502Z,33.03
2023-05-14T23:52:54.660Z,18.35
2023-05-14T23:55:26.028Z,22.08
2023-05-14T23:57:57.250Z,20.38
